Time;durP1;ratioP1;P1;durP2;ratioP2;P2;SDS_P1;SDS_P2;PMS_P1;PMS_P2;Temp;Humidity;BMP_temperature;BMP_pressure;BME280_temperature;BME280_humidity;BME280_pressure;Samples;Min_cycle;Max_cycle;Signal;HPM_P1;HPM_P2
2023/11/23 00:00:54;;;;;;;48.83;21.60;;;9.40;99.90;;;;;;5018397;28;20068;-79
2023/11/23 00:03:20;;;;;;;47.65;23.75;;;9.30;99.90;;;;;;5018659;28;20042;-80
2023/11/23 00:05:46;;;;;;;55.15;23.65;;;9.50;99.90;;;;;;5019312;28;20524;-81
2023/11/23 00:08:11;;;;;;;59.30;25.00;;;9.40;99.90;;;;;;5019719;28;20041;-80
2023/11/23 00:10:37;;;;;;;49.95;23.55;;;9.40;99.90;;;;;;5021505;28;20045;-80
2023/11/23 00:13:03;;;;;;;53.40;23.90;;;9.50;99.90;;;;;;5022493;28;20034;-79
2023/11/23 00:15:29;;;;;;;54.80;23.17;;;9.40;99.90;;;;;;5021521;28;20041;-80
2023/11/23 00:17:55;;;;;;;49.50;21.95;;;9.50;99.90;;;;;;5006041;28;20045;-79
2023/11/23 00:20:20;;;;;;;53.92;23.27;;;9.50;99.90;;;;;;5021880;28;20045;-80
2023/11/23 00:22:46;;;;;;;54.05;23.45;;;9.50;99.90;;;;;;5021251;28;20449;-80
2023/11/23 00:25:13;;;;;;;52.60;21.65;;;9.50;99.90;;;;;;5020846;28;20417;-80
2023/11/23 00:27:39;;;;;;;55.72;25.13;;;9.50;99.90;;;;;;5020673;28;20049;-79
2023/11/23 00:30:06;;;;;;;51.88;23.73;;;9.60;99.90;;;;;;4998811;28;20069;-79
2023/11/23 00:32:33;;;;;;;51.35;22.45;;;9.60;99.90;;;;;;5000351;28;20054;-81
2023/11/23 00:34:58;;;;;;;49.13;22.25;;;9.50;99.90;;;;;;5002910;28;20049;-80
2023/11/23 00:37:24;;;;;;;47.80;22.73;;;9.60;99.90;;;;;;5004534;28;20038;-81
2023/11/23 00:39:49;;;;;;;45.13;21.65;;;9.70;99.90;;;;;;5004248;28;20418;-80
2023/11/23 00:42:15;;;;;;;52.95;22.17;;;9.70;99.90;;;;;;4990163;28;20064;-80
2023/11/23 00:44:41;;;;;;;42.03;21.38;;;9.50;99.90;;;;;;5022704;28;20096;-80
2023/11/23 00:47:06;;;;;;;52.45;22.38;;;9.70;99.90;;;;;;5024270;28;20038;-80
2023/11/23 00:49:33;;;;;;;48.45;21.83;;;9.60;99.90;;;;;;5024234;28;20112;-80
2023/11/23 00:51:59;;;;;;;48.25;21.02;;;9.70;99.90;;;;;;5019776;28;20038;-80
2023/11/23 00:54:25;;;;;;;42.60;19.98;;;9.60;99.90;;;;;;5018449;28;20390;-80
2023/11/23 00:56:50;;;;;;;47.78;20.67;;;9.70;99.90;;;;;;5006482;28;20088;-81
2023/11/23 00:59:16;;;;;;;39.75;20.48;;;9.80;99.90;;;;;;5023093;28;20065;-80
2023/11/23 01:01:41;;;;;;;47.35;20.67;;;9.90;99.90;;;;;;5020443;28;20042;-80
2023/11/23 01:04:07;;;;;;;42.97;18.63;;;9.80;99.90;;;;;;5020906;28;20041;-80
2023/11/23 01:06:34;;;;;;;41.55;17.63;;;9.70;99.90;;;;;;5020708;28;20076;-80
2023/11/23 01:09:00;;;;;;;38.97;17.75;;;9.80;99.90;;;;;;5021235;28;20037;-80
2023/11/23 01:11:25;;;;;;;40.58;18.10;;;9.80;99.90;;;;;;5021727;28;20057;-80
2023/11/23 01:13:51;;;;;;;38.40;16.77;;;10.00;99.90;;;;;;5006192;28;20041;-79
2023/11/23 01:16:17;;;;;;;40.70;18.45;;;9.90;99.90;;;;;;5022252;28;20045;-79
2023/11/23 01:18:43;;;;;;;35.83;16.95;;;10.00;99.90;;;;;;5005742;28;20100;-80
2023/11/23 01:21:09;;;;;;;31.27;14.48;;;9.90;99.90;;;;;;5022888;28;20133;-79
2023/11/23 01:23:34;;;;;;;35.88;15.07;;;10.10;99.90;;;;;;5022763;28;20077;-79
2023/11/23 01:26:00;;;;;;;32.47;13.88;;;10.00;99.90;;;;;;5020372;28;20102;-80
2023/11/23 01:28:25;;;;;;;28.00;13.82;;;10.20;99.90;;;;;;5001615;28;20037;-77
2023/11/23 01:30:51;;;;;;;26.13;11.77;;;10.20;99.90;;;;;;5017891;28;20040;-77
2023/11/23 01:33:17;;;;;;;24.58;10.57;;;10.20;99.90;;;;;;5018139;28;20037;-77
2023/11/23 01:35:44;;;;;;;25.13;11.25;;;10.30;99.90;;;;;;5016818;28;20041;-77
2023/11/23 01:38:09;;;;;;;25.63;10.75;;;10.20;99.90;;;;;;5017794;28;20073;-77
2023/11/23 01:40:35;;;;;;;20.23;10.00;;;10.30;99.90;;;;;;5019548;28;20042;-77
2023/11/23 01:43:10;;;;;;;23.52;9.82;;;10.10;99.90;;;;;;5015464;28;20041;-77
2023/11/23 01:45:37;;;;;;;21.63;9.38;;;10.30;99.90;;;;;;5014751;28;20121;-77
2023/11/23 01:48:03;;;;;;;22.65;8.80;;;10.30;99.90;;;;;;5028305;28;20057;-77
2023/11/23 01:50:31;;;;;;;20.48;8.27;;;10.40;99.90;;;;;;5001296;28;20104;-77
2023/11/23 01:52:57;;;;;;;23.65;8.43;;;10.30;99.90;;;;;;5014818;28;20041;-77
2023/11/23 01:55:23;;;;;;;20.50;9.07;;;10.50;99.90;;;;;;5017672;28;20038;-77
2023/11/23 01:57:52;;;;;;;16.73;7.95;;;10.40;99.90;;;;;;5019701;28;20056;-78
2023/11/23 02:00:18;;;;;;;24.48;8.75;;;10.40;99.90;;;;;;5025003;28;20042;-78
2023/11/23 02:02:44;;;;;;;16.80;7.10;;;10.40;99.90;;;;;;5025841;28;20038;-78
2023/11/23 02:05:11;;;;;;;15.80;7.43;;;10.60;99.90;;;;;;5009536;28;20632;-77
2023/11/23 02:07:36;;;;;;;18.88;6.30;;;10.50;99.90;;;;;;5018787;28;20054;-77
2023/11/23 02:10:03;;;;;;;14.80;5.90;;;10.60;99.90;;;;;;5016454;28;20056;-77
2023/11/23 02:12:29;;;;;;;18.60;5.90;;;10.70;99.90;;;;;;5017808;28;20070;-77
2023/11/23 02:14:56;;;;;;;13.38;5.05;;;10.70;99.90;;;;;;5017262;28;20041;-77
2023/11/23 02:17:24;;;;;;;17.48;5.50;;;10.70;99.90;;;;;;5016524;28;20038;-77
2023/11/23 02:19:50;;;;;;;14.95;4.15;;;10.80;99.90;;;;;;5015744;28;20042;-77
2023/11/23 02:22:16;;;;;;;21.55;4.90;;;10.80;99.90;;;;;;5015167;28;20037;-77
2023/11/23 02:24:43;;;;;;;18.35;5.00;;;10.80;99.90;;;;;;5015012;28;20030;-77
2023/11/23 02:27:09;;;;;;;13.95;4.63;;;10.90;99.90;;;;;;5018587;28;20505;-77
2023/11/23 02:29:35;;;;;;;21.00;4.40;;;11.00;99.90;;;;;;5018119;28;20073;-77
2023/11/23 02:32:09;;;;;;;14.60;3.63;;;11.10;99.90;;;;;;5014669;28;20042;-77
2023/11/23 02:34:36;;;;;;;16.75;4.47;;;11.00;99.90;;;;;;5019061;28;20034;-77
2023/11/23 02:37:03;;;;;;;16.85;4.40;;;11.30;99.90;;;;;;5020848;28;20049;-77
2023/11/23 02:39:29;;;;;;;14.05;3.78;;;11.30;99.90;;;;;;5020283;28;20056;-77
2023/11/23 02:41:56;;;;;;;12.05;4.15;;;11.30;99.90;;;;;;5022837;28;20045;-77
2023/11/23 02:44:22;;;;;;;21.10;4.85;;;11.20;99.90;;;;;;5018539;28;20065;-77
2023/11/23 02:46:48;;;;;;;16.38;4.70;;;11.30;99.90;;;;;;5012541;28;20038;-77
2023/11/23 02:49:15;;;;;;;16.13;5.35;;;11.30;99.90;;;;;;5030203;28;20097;-77
2023/11/23 02:51:40;;;;;;;15.30;4.63;;;11.40;99.90;;;;;;5029647;28;20049;-77
2023/11/23 02:54:06;;;;;;;12.60;5.03;;;11.50;99.90;;;;;;5028151;28;20034;-78
2023/11/23 02:56:32;;;;;;;16.60;4.65;;;11.50;99.90;;;;;;5019139;28;20041;-77
2023/11/23 02:58:58;;;;;;;11.95;4.45;;;11.50;99.90;;;;;;5025332;28;20041;-77
2023/11/23 03:01:23;;;;;;;22.52;4.70;;;11.40;99.90;;;;;;5019074;28;20096;-77
2023/11/23 03:03:52;;;;;;;17.08;3.60;;;11.40;99.90;;;;;;5004588;28;20387;-77
2023/11/23 03:06:17;;;;;;;17.10;4.15;;;11.60;99.90;;;;;;5019953;28;20096;-77
2023/11/23 03:08:43;;;;;;;17.05;3.72;;;11.50;99.90;;;;;;5020195;28;20042;-77
2023/11/23 03:11:18;;;;;;;18.23;4.72;;;11.50;99.90;;;;;;5021618;28;20073;-77
2023/11/23 03:13:43;;;;;;;18.50;3.78;;;11.40;99.90;;;;;;5004756;28;20441;-77
2023/11/23 03:16:09;;;;;;;18.85;3.88;;;11.40;99.90;;;;;;5023075;28;20054;-77
2023/11/23 03:18:36;;;;;;;12.55;3.40;;;11.60;99.90;;;;;;5022450;28;20034;-77
2023/11/23 03:21:02;;;;;;;17.23;3.80;;;11.50;99.90;;;;;;5016453;28;20060;-77
2023/11/23 03:23:27;;;;;;;11.90;2.90;;;11.50;99.90;;;;;;5009561;28;20041;-77
2023/11/23 03:25:54;;;;;;;13.13;3.17;;;11.40;99.90;;;;;;5003282;28;20034;-77
2023/11/23 03:28:19;;;;;;;13.30;3.38;;;11.60;99.90;;;;;;5000176;28;20034;-77
2023/11/23 03:30:45;;;;;;;16.70;3.42;;;11.60;99.90;;;;;;5010457;28;20098;-77
2023/11/23 03:33:10;;;;;;;15.70;4.32;;;11.50;99.90;;;;;;5007121;28;20092;-77
2023/11/23 03:35:36;;;;;;;14.95;3.22;;;11.50;99.90;;;;;;5015373;28;20037;-77
2023/11/23 03:38:03;;;;;;;15.00;4.22;;;11.50;99.90;;;;;;5019416;28;20046;-77
2023/11/23 03:40:28;;;;;;;16.52;3.50;;;11.60;99.90;;;;;;5017763;28;20085;-77
2023/11/23 03:42:54;;;;;;;17.00;3.78;;;11.50;99.90;;;;;;5015206;28;20049;-77
2023/11/23 03:45:22;;;;;;;15.55;4.05;;;11.60;99.90;;;;;;5016461;28;20038;-78
2023/11/23 03:47:48;;;;;;;15.95;4.53;;;11.60;99.90;;;;;;5021490;28;20459;-78
2023/11/23 03:50:14;;;;;;;15.98;3.60;;;11.50;99.90;;;;;;5025456;28;20080;-78
2023/11/23 03:52:40;;;;;;;15.40;4.45;;;11.50;99.90;;;;;;5029902;28;20049;-78
2023/11/23 03:55:08;;;;;;;12.05;3.33;;;11.40;99.90;;;;;;5026400;28;20121;-78
2023/11/23 03:57:34;;;;;;;21.85;5.97;;;11.60;99.90;;;;;;5027678;28;20448;-78
2023/11/23 04:00:00;;;;;;;12.30;3.83;;;11.50;99.90;;;;;;5022376;28;20082;-78
2023/11/23 04:02:26;;;;;;;12.90;3.70;;;11.40;99.90;;;;;;5024121;28;20042;-78
2023/11/23 04:04:51;;;;;;;15.98;4.70;;;11.40;99.90;;;;;;5026750;28;20095;-78
2023/11/23 04:07:17;;;;;;;15.63;4.03;;;11.50;99.90;;;;;;5026986;28;20046;-78
2023/11/23 04:09:42;;;;;;;12.93;3.75;;;11.40;99.90;;;;;;5027242;28;20038;-78
2023/11/23 04:12:08;;;;;;;17.30;3.63;;;11.50;99.90;;;;;;5027114;28;20073;-78
2023/11/23 04:14:34;;;;;;;11.85;4.18;;;11.40;99.90;;;;;;5025817;28;20038;-78
2023/11/23 04:16:59;;;;;;;14.40;3.00;;;11.40;99.90;;;;;;5026530;28;20416;-78
2023/11/23 04:19:25;;;;;;;17.20;3.63;;;11.40;99.90;;;;;;5026545;28;20047;-78
2023/11/23 04:21:50;;;;;;;15.85;4.20;;;11.50;99.90;;;;;;5026296;28;20050;-77
2023/11/23 04:24:16;;;;;;;13.48;3.55;;;11.40;99.90;;;;;;5025935;28;20065;-78
2023/11/23 04:26:41;;;;;;;10.40;3.63;;;11.50;99.90;;;;;;5025501;28;20042;-78
2023/11/23 04:29:07;;;;;;;15.43;3.20;;;11.40;99.90;;;;;;5026225;28;20053;-78
2023/11/23 04:31:33;;;;;;;14.88;4.47;;;11.40;99.90;;;;;;5020925;28;20042;-78
2023/11/23 04:33:58;;;;;;;15.38;4.22;;;11.30;99.90;;;;;;5017430;28;20037;-78
2023/11/23 04:36:26;;;;;;;13.48;4.00;;;11.30;99.90;;;;;;5023781;28;20413;-78
2023/11/23 04:38:51;;;;;;;18.25;3.83;;;11.30;99.90;;;;;;5025869;28;20038;-78
2023/11/23 04:41:17;;;;;;;16.65;3.22;;;11.40;99.90;;;;;;5024945;28;20390;-78
2023/11/23 04:43:42;;;;;;;14.13;3.55;;;11.40;99.90;;;;;;5023597;28;20102;-78
2023/11/23 04:46:08;;;;;;;12.63;3.78;;;11.30;99.90;;;;;;5024087;28;20050;-78
2023/11/23 04:48:33;;;;;;;19.73;3.97;;;11.30;99.90;;;;;;5024236;28;20448;-78
2023/11/23 04:50:59;;;;;;;16.63;3.83;;;11.50;99.90;;;;;;5024880;28;20428;-78
2023/11/23 04:53:24;;;;;;;18.30;3.88;;;11.40;99.90;;;;;;5025737;28;20433;-78
2023/11/23 04:55:50;;;;;;;16.77;4.18;;;11.30;99.90;;;;;;5025617;28;20087;-78
2023/11/23 04:58:15;;;;;;;8.05;3.47;;;11.30;99.90;;;;;;5025168;28;20121;-78
2023/11/23 05:00:41;;;;;;;18.52;4.28;;;11.30;99.90;;;;;;5029084;28;20068;-78
2023/11/23 05:03:06;;;;;;;17.65;3.97;;;11.20;99.90;;;;;;5011810;28;20029;-78
2023/11/23 05:05:32;;;;;;;11.23;3.22;;;11.30;99.90;;;;;;5028205;28;20579;-78
2023/11/23 05:07:58;;;;;;;12.30;3.25;;;11.20;99.90;;;;;;5027680;28;20509;-78
2023/11/23 05:10:23;;;;;;;24.88;3.38;;;11.20;99.90;;;;;;5026513;28;20034;-78
2023/11/23 05:12:51;;;;;;;14.27;5.90;;;11.20;99.90;;;;;;5027562;28;20057;-78
2023/11/23 05:15:17;;;;;;;13.95;3.10;;;11.10;99.90;;;;;;5026103;28;20063;-78
2023/11/23 05:17:42;;;;;;;17.33;3.17;;;11.00;99.90;;;;;;5027216;28;20410;-78
2023/11/23 05:20:08;;;;;;;14.45;3.33;;;11.10;99.90;;;;;;5028321;28;20049;-78
2023/11/23 05:22:34;;;;;;;20.02;4.28;;;11.00;99.90;;;;;;5028457;28;20077;-78
2023/11/23 05:25:00;;;;;;;13.60;3.40;;;11.00;99.90;;;;;;5027719;28;20036;-78
2023/11/23 05:27:25;;;;;;;15.43;3.10;;;11.10;99.90;;;;;;5026788;28;20044;-78
2023/11/23 05:29:51;;;;;;;12.82;4.10;;;11.00;99.90;;;;;;5013299;28;20033;-78
2023/11/23 05:32:16;;;;;;;14.45;3.25;;;11.00;99.90;;;;;;5029473;28;20042;-78
2023/11/23 05:34:42;;;;;;;14.63;2.97;;;11.00;99.90;;;;;;5028066;28;20061;-79
2023/11/23 05:37:08;;;;;;;12.43;3.30;;;11.10;99.90;;;;;;5028863;28;20042;-78
2023/11/23 05:39:33;;;;;;;9.60;2.90;;;11.00;99.90;;;;;;5027733;28;20061;-78
2023/11/23 05:41:59;;;;;;;10.80;3.17;;;11.10;99.90;;;;;;5029330;28;20076;-78
2023/11/23 05:44:25;;;;;;;17.38;3.72;;;11.10;99.90;;;;;;5028791;28;20049;-78
2023/11/23 05:46:51;;;;;;;14.07;3.80;;;11.00;99.90;;;;;;5028337;28;20076;-78
2023/11/23 05:49:21;;;;;;;14.70;4.07;;;11.00;99.90;;;;;;5029207;28;20029;-78
2023/11/23 05:51:47;;;;;;;21.25;5.05;;;11.00;99.90;;;;;;5011112;28;20049;-78
2023/11/23 05:54:12;;;;;;;12.38;2.67;;;11.10;99.90;;;;;;5027774;28;20025;-78
2023/11/23 05:56:38;;;;;;;18.40;4.85;;;11.20;99.90;;;;;;5027157;28;20053;-78
2023/11/23 05:59:04;;;;;;;16.52;4.28;;;11.10;99.90;;;;;;5026297;28;20056;-78
2023/11/23 06:01:30;;;;;;;19.85;4.68;;;11.10;99.90;;;;;;5026079;28;20045;-78
2023/11/23 06:03:56;;;;;;;15.07;3.05;;;11.20;99.90;;;;;;5026747;28;20409;-78
2023/11/23 06:06:23;;;;;;;13.23;3.08;;;11.20;99.90;;;;;;5026524;28;20046;-78
2023/11/23 06:08:49;;;;;;;15.23;3.40;;;11.20;99.90;;;;;;5010338;28;20101;-78
2023/11/23 06:11:16;;;;;;;20.25;5.20;;;11.20;99.90;;;;;;5024939;28;20137;-78
2023/11/23 06:13:48;;;;;;;13.93;4.30;;;11.20;99.90;;;;;;5024684;28;20102;-78
2023/11/23 06:16:14;;;;;;;20.47;4.73;;;11.30;99.90;;;;;;5028238;28;20041;-78
2023/11/23 06:18:40;;;;;;;10.88;3.05;;;11.20;99.90;;;;;;5027185;28;20037;-78
2023/11/23 06:21:06;;;;;;;17.75;5.70;;;11.20;99.90;;;;;;5027078;28;20045;-78
2023/11/23 06:23:32;;;;;;;14.63;3.92;;;11.20;99.90;;;;;;5027214;28;20387;-78
2023/11/23 06:25:57;;;;;;;15.82;4.43;;;11.20;99.90;;;;;;5025927;28;20038;-78
2023/11/23 06:28:24;;;;;;;16.63;3.72;;;11.20;99.90;;;;;;5033929;28;20061;-78
2023/11/23 06:30:50;;;;;;;17.77;4.35;;;11.10;99.90;;;;;;5034708;28;20073;-78
2023/11/23 06:33:16;;;;;;;17.90;4.47;;;11.10;99.90;;;;;;5033813;28;20049;-78
2023/11/23 06:35:42;;;;;;;19.55;3.55;;;11.10;99.90;;;;;;5013364;28;20054;-78
2023/11/23 06:38:07;;;;;;;18.55;4.07;;;11.10;99.90;;;;;;5036404;28;20037;-79
2023/11/23 06:40:35;;;;;;;15.10;3.58;;;11.20;99.90;;;;;;5034943;28;20557;-78
2023/11/23 06:43:02;;;;;;;14.85;4.55;;;11.30;99.90;;;;;;5036625;28;20060;-78
2023/11/23 06:45:27;;;;;;;10.70;3.85;;;11.30;99.90;;;;;;5033573;28;20397;-78
2023/11/23 06:47:53;;;;;;;16.20;3.85;;;11.20;99.90;;;;;;5034175;28;20048;-78
2023/11/23 06:50:20;;;;;;;11.43;3.47;;;11.20;99.90;;;;;;5033457;28;20042;-78
2023/11/23 06:52:46;;;;;;;11.77;3.20;;;11.20;99.90;;;;;;5032300;28;20168;-78
2023/11/23 06:55:13;;;;;;;11.65;3.33;;;11.20;99.90;;;;;;5034708;28;20030;-78
2023/11/23 06:57:46;;;;;;;14.57;3.45;;;11.30;99.90;;;;;;5031576;28;20060;-79
2023/11/23 07:00:25;;;;;;;16.55;4.07;;;11.30;99.90;;;;;;5034524;28;20049;-78
2023/11/23 07:02:58;;;;;;;21.83;4.60;;;11.30;99.90;;;;;;5015551;28;20041;-79
2023/11/23 07:05:24;;;;;;;16.65;3.60;;;11.30;99.90;;;;;;5031812;28;20057;-78
2023/11/23 07:07:51;;;;;;;18.00;3.90;;;11.30;99.90;;;;;;5031072;28;20046;-79
2023/11/23 07:10:18;;;;;;;23.00;3.33;;;11.40;99.90;;;;;;5031301;28;20050;-78
2023/11/23 07:12:44;;;;;;;19.80;4.50;;;11.40;99.90;;;;;;5029769;28;20042;-78
2023/11/23 07:15:12;;;;;;;15.52;4.40;;;11.40;99.90;;;;;;5031339;28;20454;-78
2023/11/23 07:17:38;;;;;;;14.75;3.10;;;11.40;99.90;;;;;;5028561;28;20065;-78
2023/11/23 07:20:07;;;;;;;18.30;4.28;;;11.50;99.90;;;;;;5028359;28;20057;-78
2023/11/23 07:22:35;;;;;;;15.20;3.95;;;11.50;99.90;;;;;;5029416;28;20041;-78
2023/11/23 07:25:03;;;;;;;16.95;3.70;;;11.50;99.90;;;;;;5028612;28;20041;-78
2023/11/23 07:27:28;;;;;;;10.55;3.15;;;11.40;99.90;;;;;;5031273;28;20037;-78
2023/11/23 07:29:54;;;;;;;13.30;3.10;;;11.40;99.90;;;;;;5027773;28;20114;-78
2023/11/23 07:32:21;;;;;;;12.02;3.17;;;11.40;99.90;;;;;;5029171;28;20034;-79
2023/11/23 07:34:47;;;;;;;15.77;3.95;;;11.50;99.90;;;;;;5028179;28;20049;-79
2023/11/23 07:37:13;;;;;;;10.30;3.58;;;11.50;99.90;;;;;;5029907;28;20029;-79
2023/11/23 07:39:39;;;;;;;12.10;3.75;;;11.50;99.90;;;;;;5036267;28;20056;-78
2023/11/23 07:42:05;;;;;;;14.98;3.83;;;11.60;99.90;;;;;;5037301;28;20025;-78
2023/11/23 07:44:31;;;;;;;10.00;2.70;;;11.50;99.90;;;;;;5038111;28;20046;-78
2023/11/23 07:46:59;;;;;;;16.40;3.53;;;11.60;99.90;;;;;;5036985;28;20053;-79
2023/11/23 07:49:25;;;;;;;14.15;3.63;;;11.60;99.90;;;;;;5033888;28;20037;-79
2023/11/23 07:51:51;;;;;;;18.25;4.05;;;11.60;99.90;;;;;;5033660;28;20097;-78
2023/11/23 07:54:16;;;;;;;20.15;4.82;;;11.60;99.90;;;;;;5033901;28;20034;-78
2023/11/23 07:56:43;;;;;;;15.32;3.40;;;11.60;99.90;;;;;;5033227;28;20042;-78
2023/11/23 07:59:09;;;;;;;11.50;2.78;;;11.60;99.90;;;;;;5017610;28;20034;-78
2023/11/23 08:01:35;;;;;;;14.93;3.92;;;11.60;99.90;;;;;;5032999;28;20121;-78
2023/11/23 08:04:02;;;;;;;10.50;3.08;;;11.70;99.90;;;;;;5030547;28;20034;-78
2023/11/23 08:06:28;;;;;;;17.15;3.45;;;11.80;99.90;;;;;;5030864;28;20068;-77
2023/11/23 08:08:54;;;;;;;20.10;5.50;;;11.80;99.90;;;;;;5031816;28;20042;-78
2023/11/23 08:11:21;;;;;;;10.38;2.83;;;11.70;99.90;;;;;;5029937;28;20061;-78
2023/11/23 08:13:47;;;;;;;12.13;3.00;;;11.70;99.90;;;;;;5022348;28;20030;-78
2023/11/23 08:16:12;;;;;;;14.10;3.15;;;11.70;99.90;;;;;;5023674;28;20430;-78
2023/11/23 08:18:38;;;;;;;11.15;2.83;;;11.80;99.90;;;;;;5028788;28;20056;-77
2023/11/23 08:21:04;;;;;;;15.73;3.00;;;11.70;99.90;;;;;;5026901;28;20033;-78
2023/11/23 08:23:30;;;;;;;12.00;2.63;;;11.80;99.90;;;;;;5014665;28;20053;-78
2023/11/23 08:25:55;;;;;;;10.48;2.67;;;11.90;99.90;;;;;;5032971;28;20045;-78
2023/11/23 08:28:22;;;;;;;12.68;3.38;;;11.70;99.90;;;;;;5031017;28;20106;-78
2023/11/23 08:30:47;;;;;;;17.45;3.55;;;11.80;99.90;;;;;;5028749;28;20050;-78
2023/11/23 08:33:15;;;;;;;8.60;3.15;;;11.90;99.90;;;;;;5025842;28;20045;-79
2023/11/23 08:35:41;;;;;;;15.88;2.70;;;11.90;99.90;;;;;;5026636;28;20084;-79
2023/11/23 08:38:06;;;;;;;14.23;2.85;;;12.10;99.90;;;;;;5029332;28;20448;-80
2023/11/23 08:40:32;;;;;;;10.00;2.53;;;12.10;99.90;;;;;;5026961;28;20065;-79
2023/11/23 08:42:57;;;;;;;11.73;2.78;;;12.10;99.90;;;;;;5005219;28;20120;-79
2023/11/23 08:45:24;;;;;;;9.43;2.25;;;12.20;99.90;;;;;;5029272;28;20037;-78
2023/11/23 08:47:50;;;;;;;12.13;2.90;;;12.20;99.90;;;;;;5028292;28;20070;-78
2023/11/23 08:50:17;;;;;;;11.77;3.00;;;12.20;99.90;;;;;;5036763;28;20050;-78
2023/11/23 08:52:42;;;;;;;12.23;3.22;;;12.30;99.90;;;;;;5035069;28;20033;-79
2023/11/23 08:55:08;;;;;;;12.43;3.47;;;12.40;99.90;;;;;;5033969;28;20072;-78
2023/11/23 08:57:36;;;;;;;11.40;2.50;;;12.40;99.90;;;;;;5020104;28;20053;-79
2023/11/23 09:00:02;;;;;;;9.32;2.00;;;12.40;99.90;;;;;;5022170;28;20056;-78
2023/11/23 09:02:28;;;;;;;8.27;2.63;;;12.40;99.90;;;;;;5018135;28;20041;-77
2023/11/23 09:04:55;;;;;;;16.27;3.45;;;12.50;99.90;;;;;;5026572;28;20091;-77
2023/11/23 09:07:21;;;;;;;9.50;2.72;;;12.40;99.90;;;;;;5020363;28;20042;-77
2023/11/23 09:09:47;;;;;;;8.63;2.95;;;12.40;99.90;;;;;;5005211;28;20201;-77
2023/11/23 09:12:12;;;;;;;12.43;2.30;;;12.60;99.90;;;;;;5020039;28;20390;-77
2023/11/23 09:14:38;;;;;;;11.52;2.58;;;12.60;99.90;;;;;;5016544;28;20034;-79
2023/11/23 09:17:04;;;;;;;12.80;2.40;;;12.60;99.90;;;;;;5019478;28;20472;-79
2023/11/23 09:19:30;;;;;;;9.13;2.10;;;12.60;99.90;;;;;;5019974;28;20452;-79
2023/11/23 09:21:56;;;;;;;10.45;2.63;;;12.60;99.90;;;;;;5022094;28;20042;-78
2023/11/23 09:24:22;;;;;;;12.95;2.67;;;12.60;99.90;;;;;;5018539;28;20041;-78
2023/11/23 09:26:47;;;;;;;12.35;3.47;;;12.70;99.90;;;;;;5014168;28;20125;-78
2023/11/23 09:29:13;;;;;;;10.43;3.50;;;12.70;99.90;;;;;;5013468;28;20057;-78
2023/11/23 09:31:38;;;;;;;12.00;2.58;;;12.80;99.90;;;;;;5018664;28;20154;-78
2023/11/23 09:34:04;;;;;;;12.05;3.53;;;12.80;99.90;;;;;;5018639;28;20033;-78
2023/11/23 09:36:29;;;;;;;10.05;2.85;;;12.80;99.90;;;;;;5011922;28;20038;-78
2023/11/23 09:38:56;;;;;;;9.45;2.88;;;12.80;99.90;;;;;;5025511;28;20041;-78
2023/11/23 09:41:24;;;;;;;6.80;3.00;;;12.80;99.90;;;;;;5003843;28;20050;-78
2023/11/23 09:43:50;;;;;;;16.60;3.25;;;12.80;99.90;;;;;;5025325;28;20021;-79
2023/11/23 09:46:16;;;;;;;10.93;2.00;;;12.80;99.90;;;;;;5024569;28;20414;-78
2023/11/23 09:48:44;;;;;;;6.45;2.72;;;12.90;99.90;;;;;;5027738;28;20037;-77
2023/11/23 09:51:09;;;;;;;14.55;2.72;;;12.90;99.90;;;;;;5029477;28;20038;-77
2023/11/23 09:53:43;;;;;;;6.05;2.55;;;13.00;99.90;;;;;;5025688;28;20084;-78
2023/11/23 09:56:09;;;;;;;16.73;2.53;;;12.90;99.90;;;;;;5025295;28;20050;-78
2023/11/23 09:58:34;;;;;;;13.98;2.83;;;13.00;99.90;;;;;;5026791;28;20048;-79
2023/11/23 10:01:02;;;;;;;7.20;2.22;;;13.00;99.90;;;;;;5027257;28;20060;-79
2023/11/23 10:03:33;;;;;;;10.82;2.40;;;13.10;99.90;;;;;;5024243;28;20088;-77
2023/11/23 10:05:59;;;;;;;9.25;2.10;;;13.10;99.90;;;;;;5020381;28;20054;-78
2023/11/23 10:08:27;;;;;;;9.20;2.35;;;13.00;99.90;;;;;;5025516;28;20040;-79
2023/11/23 10:10:53;;;;;;;8.45;3.03;;;13.10;99.90;;;;;;5020953;28;20108;-77
2023/11/23 10:13:19;;;;;;;8.07;2.25;;;13.10;99.90;;;;;;5017141;28;20038;-77
2023/11/23 10:15:45;;;;;;;8.48;2.63;;;13.10;99.90;;;;;;5016581;28;20069;-77
2023/11/23 10:18:11;;;;;;;8.40;2.20;;;13.20;99.90;;;;;;5015398;28;20038;-77
2023/11/23 10:20:38;;;;;;;8.25;2.42;;;13.20;99.90;;;;;;5019344;28;20087;-77
2023/11/23 10:23:06;;;;;;;12.68;3.33;;;13.10;99.90;;;;;;5013556;28;20493;-76
2023/11/23 10:25:31;;;;;;;6.60;2.38;;;13.20;99.90;;;;;;5011903;28;20501;-77
2023/11/23 10:27:58;;;;;;;9.95;2.00;;;13.20;99.90;;;;;;5012736;28;20065;-77
2023/11/23 10:30:29;;;;;;;8.63;2.95;;;13.30;99.90;;;;;;5013989;28;20034;-75
2023/11/23 10:32:59;;;;;;;10.85;2.78;;;13.30;99.90;;;;;;5014384;28;20034;-77
2023/11/23 10:35:31;;;;;;;11.27;1.95;;;13.30;99.90;;;;;;5001493;28;20073;-77
2023/11/23 10:37:56;;;;;;;8.93;2.60;;;13.30;99.90;;;;;;5014180;28;20076;-76
2023/11/23 10:40:25;;;;;;;9.32;2.70;;;13.40;99.90;;;;;;5012199;28;20082;-76
2023/11/23 10:42:52;;;;;;;8.98;2.50;;;13.30;99.90;;;;;;5016056;28;20042;-75
2023/11/23 10:45:20;;;;;;;11.30;2.13;;;13.40;99.90;;;;;;5010469;28;20038;-75
2023/11/23 10:47:52;;;;;;;14.25;2.53;;;13.40;99.90;;;;;;5010341;28;20042;-75
2023/11/23 10:50:19;;;;;;;7.50;1.80;;;13.40;99.90;;;;;;5010588;28;20092;-75
2023/11/23 10:52:46;;;;;;;6.03;2.40;;;13.30;99.90;;;;;;5010366;28;20042;-76
2023/11/23 10:55:12;;;;;;;14.32;3.78;;;13.40;99.90;;;;;;5010057;28;20034;-75
2023/11/23 10:57:42;;;;;;;11.43;2.53;;;13.30;99.90;;;;;;5010208;28;20124;-76
2023/11/23 11:00:15;;;;;;;9.52;1.90;;;13.30;99.90;;;;;;5043257;28;20121;-76
2023/11/23 11:02:45;;;;;;;5.28;2.00;;;13.30;99.90;;;;;;5010287;28;20107;-75
2023/11/23 11:05:26;;;;;;;9.93;2.03;;;13.30;99.90;;;;;;5009925;28;20046;-76
2023/11/23 11:08:05;;;;;;;5.85;1.90;;;13.40;99.90;;;;;;5043188;28;20054;-75
2023/11/23 11:10:50;;;;;;;9.73;2.08;;;13.30;99.90;;;;;;4993824;28;20087;-75
2023/11/23 11:13:39;;;;;;;8.10;2.22;;;13.30;99.90;;;;;;5010232;28;20053;-76
2023/11/23 11:16:09;;;;;;;6.18;2.15;;;13.30;99.90;;;;;;5010146;28;20045;-75
2023/11/23 11:18:35;;;;;;;8.52;2.17;;;13.30;99.90;;;;;;5010208;28;20045;-76
2023/11/23 11:21:12;;;;;;;11.80;1.95;;;13.40;99.90;;;;;;5010233;28;20401;-75
2023/11/23 11:23:51;;;;;;;11.70;3.35;;;13.40;99.90;;;;;;5012069;28;20045;-76
2023/11/23 11:26:21;;;;;;;7.60;2.65;;;13.30;99.90;;;;;;4997113;28;20041;-75
2023/11/23 11:29:01;;;;;;;11.20;2.08;;;13.40;99.90;;;;;;5013552;28;20175;-76
2023/11/23 11:31:36;;;;;;;10.10;2.42;;;13.30;99.90;;;;;;5013448;28;20095;-76
2023/11/23 11:34:03;;;;;;;13.45;2.40;;;13.30;99.90;;;;;;5013385;28;20080;-76
2023/11/23 11:36:30;;;;;;;11.43;2.55;;;13.30;99.90;;;;;;4996744;28;20053;-75
2023/11/23 11:39:00;;;;;;;9.35;2.20;;;13.30;99.90;;;;;;5023761;28;20057;-83
2023/11/23 11:41:34;;;;;;;10.52;2.20;;;13.40;99.90;;;;;;5025515;28;20034;-82
2023/11/23 11:44:00;;;;;;;11.02;2.95;;;13.50;99.90;;;;;;5025310;28;20060;-82
2023/11/23 11:46:29;;;;;;;10.77;2.10;;;13.50;99.90;;;;;;5024041;28;20100;-80
2023/11/23 11:48:57;;;;;;;10.35;2.88;;;13.50;99.90;;;;;;5023729;28;20080;-83
2023/11/23 11:51:31;;;;;;;10.00;1.98;;;13.60;99.90;;;;;;5022776;28;20042;-84
2023/11/23 11:53:56;;;;;;;;;;;13.60;99.90;;;;;;5023093;28;20041;-81
2023/11/23 11:56:22;;;;;;;11.13;2.13;;;13.60;99.90;;;;;;5023445;28;19917;-81
2023/11/23 11:58:49;;;;;;;9.70;2.40;;;13.70;99.90;;;;;;5021527;28;20508;-83
2023/11/23 12:01:18;;;;;;;11.18;2.40;;;13.80;99.90;;;;;;5032254;28;20056;-84
2023/11/23 12:03:50;;;;;;;9.13;2.58;;;13.70;99.90;;;;;;5013987;28;20030;-83
2023/11/23 12:06:19;;;;;;;11.05;2.92;;;13.70;99.90;;;;;;5023748;28;20041;-82
2023/11/23 12:08:45;;;;;;;12.35;3.00;;;13.70;99.90;;;;;;5025432;28;20046;-84
2023/11/23 12:11:25;;;;;;;12.57;2.90;;;13.60;99.90;;;;;;5025292;28;20060;-83
2023/11/23 12:13:54;;;;;;;8.82;3.20;;;13.60;99.90;;;;;;5024042;28;20088;-81
2023/11/23 12:16:21;;;;;;;10.25;2.28;;;13.60;99.90;;;;;;5023817;28;20077;-80
2023/11/23 12:18:48;;;;;;;14.05;3.40;;;13.60;99.90;;;;;;5021687;28;20042;-83
2023/11/23 12:21:15;;;;;;;16.35;3.08;;;13.60;99.90;;;;;;5022797;28;20049;-82
2023/11/23 12:23:45;;;;;;;10.85;3.75;;;13.60;99.90;;;;;;5011318;28;20039;-81
2023/11/23 12:26:12;;;;;;;10.82;3.30;;;13.60;99.90;;;;;;5002337;28;20042;-81
2023/11/23 12:28:38;;;;;;;14.60;2.70;;;13.60;99.90;;;;;;5001611;28;20049;-81
2023/11/23 12:31:04;;;;;;;12.02;3.15;;;13.60;99.90;;;;;;5005186;28;20049;-81
2023/11/23 12:33:30;;;;;;;8.52;2.35;;;13.60;99.90;;;;;;5012136;28;20042;-81
2023/11/23 12:35:57;;;;;;;12.98;4.05;;;13.60;99.90;;;;;;5013159;28;20537;-81